Larry Drummond — WDG3073 — position and weather

sailwx.info

Track history (hours):
 
Tides and Currents Weather Stations Pressure Air Temp Water Temp Dewpoint Dewpoint Depression Visibility Wind Speed Wind Dir Waves Ship Positions

Larry Drummond

Owner: INGRAM BARGE COMPANY, NASHVILLE, TN. More information available from US FCC via Universal Licensing System and Coast Guard Vessel Documentation Center.

Last reported at 2015-Dec-13 09:33 UTC. Time now 2016-Feb-11 17:00 UTC.
Position N 38°56' W 084°51'.
Warning: this ship's position is months out of date.

Length 70 m; draft 9 m.

Type: Towing. MMSI: 367522210.

Date/timePositionNaut miles runAvg speedWind from/ knotsBaromVisibWave heightAir tempDewpointWater temp
2015-Dec-13 09:33N 38°56' W 084°51'6 4.5
2015-Dec-13 08:18N 39°02' W 084°53'4 4.1
2015-Dec-13 07:26N 39°05' W 084°51'5 5.4
2015-Dec-13 06:33N 39°08' W 084°46'4 3.6
2015-Dec-13 05:33N 39°07' W 084°42'5 4.9
2015-Dec-13 04:33N 39°04' W 084°36'5 4.9
2015-Dec-13 03:33N 39°06' W 084°30'3 3.3
2015-Dec-13 02:33N 39°05' W 084°26'3 3.1
2015-Dec-13 01:33N 39°02' W 084°23'0 0.0
2015-Dec-13 00:32N 39°02' W 084°23'0 0.0
2015-Dec-12 23:32N 39°02' W 084°23'0 0.2
2015-Dec-12 22:32N 39°03' W 084°23'0 0.4
2015-Dec-12 21:33N 39°02' W 084°23'5 5.0
2015-Dec-12 20:34N 38°59' W 084°18'5 5.5
2015-Dec-12 19:33N 38°54' W 084°15'5 5.4
2015-Dec-12 18:33N 38°49' W 084°13'6 2.9
2015-Dec-12 16:23N 38°47' W 084°06'8 4.2
2015-Dec-12 14:33N 38°47' W 083°56'  
2015-Dec-10 08:09N 38°38' W 083°40'1 0.4
2015-Dec-10 05:18N 38°38' W 083°42'11 3.0
2015-Dec-10 01:33N 38°46' W 083°52'8 3.9
2015-Dec-09 23:30N 38°46' W 084°03'4 4.1
2015-Dec-09 22:33N 38°47' W 084°07'3 2.3
2015-Dec-09 21:27N 38°48' W 084°11'2 2.3
2015-Dec-09 20:32N 38°48' W 084°13'4 3.9
2015-Dec-09 19:33N 38°52' W 084°14'4 4.0
2015-Dec-09 18:33N 38°56' W 084°16'4 4.1
2015-Dec-09 17:33N 38°60' W 084°18'4 3.9
2015-Dec-09 16:33N 39°02' W 084°22'4 3.8
2015-Dec-09 15:33N 39°04' W 084°26'4 3.5
2015-Dec-09 14:32N 39°07' W 084°28'3 3.5
2015-Dec-09 13:33N 39°06' W 084°32'4 3.6
2015-Dec-09 12:33N 39°04' W 084°37'4 3.8
2015-Dec-09 11:33N 39°06' W 084°41'4 3.8
2015-Dec-09 10:33N 39°09' W 084°44'3 3.3
2015-Dec-09 09:31N 39°07' W 084°48'4 3.4
2015-Dec-09 08:22N 39°04' W 084°52'8 2.9
2015-Dec-09 05:32N 38°56' W 084°52'  
Track history (hours):
 
Tides and Currents Weather Stations Pressure Air Temp Water Temp Dewpoint Dewpoint Depression Visibility Wind Speed Wind Dir Waves Ship Positions

Larry Drummond

Owner: INGRAM BARGE COMPANY, NASHVILLE, TN. More information available from US FCC via Universal Licensing System and Coast Guard Vessel Documentation Center.

Last reported at 2015-Dec-13 09:33 UTC. Time now 2016-Feb-11 17:00 UTC.
Position N 38°56' W 084°51'.
Warning: this ship's position is months out of date.

Length 70 m; draft 9 m.

Type: Towing. MMSI: 367522210.

Date/timePositionNaut miles runAvg speedWind from/ knotsBaromVisibWave heightAir tempDewpointWater temp
2015-Dec-13 09:33N 38°56' W 084°51'6 4.5
2015-Dec-13 08:18N 39°02' W 084°53'4 4.1
2015-Dec-13 07:26N 39°05' W 084°51'5 5.4
2015-Dec-13 06:33N 39°08' W 084°46'4 3.6
2015-Dec-13 05:33N 39°07' W 084°42'5 4.9
2015-Dec-13 04:33N 39°04' W 084°36'5 4.9
2015-Dec-13 03:33N 39°06' W 084°30'3 3.3
2015-Dec-13 02:33N 39°05' W 084°26'3 3.1
2015-Dec-13 01:33N 39°02' W 084°23'0 0.0
2015-Dec-13 00:32N 39°02' W 084°23'0 0.0
2015-Dec-12 23:32N 39°02' W 084°23'0 0.2
2015-Dec-12 22:32N 39°03' W 084°23'0 0.4
2015-Dec-12 21:33N 39°02' W 084°23'5 5.0
2015-Dec-12 20:34N 38°59' W 084°18'5 5.5
2015-Dec-12 19:33N 38°54' W 084°15'5 5.4
2015-Dec-12 18:33N 38°49' W 084°13'6 2.9
2015-Dec-12 16:23N 38°47' W 084°06'8 4.2
2015-Dec-12 14:33N 38°47' W 083°56'  
2015-Dec-10 08:09N 38°38' W 083°40'1 0.4
2015-Dec-10 05:18N 38°38' W 083°42'11 3.0
2015-Dec-10 01:33N 38°46' W 083°52'8 3.9
2015-Dec-09 23:30N 38°46' W 084°03'4 4.1
2015-Dec-09 22:33N 38°47' W 084°07'3 2.3
2015-Dec-09 21:27N 38°48' W 084°11'2 2.3
2015-Dec-09 20:32N 38°48' W 084°13'4 3.9
2015-Dec-09 19:33N 38°52' W 084°14'4 4.0
2015-Dec-09 18:33N 38°56' W 084°16'4 4.1
2015-Dec-09 17:33N 38°60' W 084°18'4 3.9
2015-Dec-09 16:33N 39°02' W 084°22'4 3.8
2015-Dec-09 15:33N 39°04' W 084°26'4 3.5
2015-Dec-09 14:32N 39°07' W 084°28'3 3.5
2015-Dec-09 13:33N 39°06' W 084°32'4 3.6
2015-Dec-09 12:33N 39°04' W 084°37'4 3.8
2015-Dec-09 11:33N 39°06' W 084°41'4 3.8
2015-Dec-09 10:33N 39°09' W 084°44'3 3.3
2015-Dec-09 09:31N 39°07' W 084°48'4 3.4
2015-Dec-09 08:22N 39°04' W 084°52'8 2.9
2015-Dec-09 05:32N 38°56' W 084°52'  

Dump ship's entire track history